Time;durP1;ratioP1;P1;durP2;ratioP2;P2;SDS_P1;SDS_P2;PMS_P1;PMS_P2;Temp;Humidity;BMP_temperature;BMP_pressure;BME280_temperature;BME280_humidity;BME280_pressure;Samples;Min_cycle;Max_cycle;Signal;HPM_P1;HPM_P2
2022/04/26 03:36:11;;;;;;;4.73;3.53;;;;;;;;;;5006745;28;20284;-70
2022/04/26 03:38:37;;;;;;;5.10;4.20;;;;;;;;;;5010258;28;20187;-70
2022/04/26 03:41:02;;;;;;;7.10;4.30;;;;;;;;;;5003667;28;20841;-71
2022/04/26 03:43:28;;;;;;;5.90;4.03;;;;;;;;;;5011281;28;20186;-69
2022/04/26 03:45:53;;;;;;;7.60;4.30;;;;;;;;;;5011250;28;20296;-69
2022/04/26 03:48:18;;;;;;;7.30;4.23;;;;;;;;;;5011126;28;20187;-70
2022/04/26 03:50:43;;;;;;;5.83;4.67;;;;;;;;;;5011865;28;20579;-69
2022/04/26 03:53:08;;;;;;;8.67;5.30;;;;;;;;;;5008253;28;20214;-69
2022/04/26 03:55:34;;;;;;;7.57;4.57;;;;;;;;;;5011683;28;20664;-71
2022/04/26 03:57:59;;;;;;;7.80;5.33;;;;;;;;;;5011145;28;20178;-71
2022/04/26 04:00:26;;;;;;;6.87;4.77;;;;;;;;;;5012633;28;20748;-71
2022/04/26 04:02:51;;;;;;;13.47;6.90;;;;;;;;;;5009860;28;20249;-71
2022/04/26 04:05:16;;;;;;;12.03;5.50;;;;;;;;;;4999918;28;20210;-71
2022/04/26 04:07:41;;;;;;;9.23;6.10;;;;;;;;;;5008788;28;20167;-70
2022/04/26 04:10:07;;;;;;;12.97;6.40;;;;;;;;;;5007130;28;20223;-70
2022/04/26 04:12:32;;;;;;;18.27;6.23;;;;;;;;;;5005085;28;20244;-71
2022/04/26 04:14:57;;;;;;;13.87;6.87;;;;;;;;;;5006051;28;20187;-71
2022/04/26 04:17:22;;;;;;;9.47;6.30;;;;;;;;;;5005587;28;20657;-71
2022/04/26 04:19:47;;;;;;;10.23;6.37;;;;;;;;;;5010440;28;20179;-70
2022/04/26 04:22:14;;;;;;;10.03;5.70;;;;;;;;;;5012781;28;20290;-67
2022/04/26 04:24:39;;;;;;;10.40;6.37;;;;;;;;;;5010534;28;20210;-71
2022/04/26 04:27:04;;;;;;;8.80;6.60;;;;;;;;;;5013029;28;20218;-71
2022/04/26 04:29:29;;;;;;;14.23;6.30;;;;;;;;;;5010147;28;20637;-70
2022/04/26 04:31:55;;;;;;;8.23;6.33;;;;;;;;;;5010470;28;20223;-70
2022/04/26 04:34:20;;;;;;;10.87;6.60;;;;;;;;;;5010327;28;20183;-70
2022/04/26 04:36:45;;;;;;;12.60;6.27;;;;;;;;;;5006314;28;20237;-68
2022/04/26 04:39:10;;;;;;;8.83;7.20;;;;;;;;;;5003558;28;20656;-69
2022/04/26 04:41:36;;;;;;;13.27;6.43;;;;;;;;;;5011094;28;20198;-71
2022/04/26 04:44:02;;;;;;;9.13;6.17;;;;;;;;;;5006777;28;20253;-71
2022/04/26 04:46:27;;;;;;;13.40;6.33;;;;;;;;;;5008031;28;20187;-70
2022/04/26 04:48:52;;;;;;;7.43;5.80;;;;;;;;;;5003957;28;20175;-71
2022/04/26 04:51:18;;;;;;;6.90;6.20;;;;;;;;;;5004360;28;20211;-71
2022/04/26 04:53:43;;;;;;;8.47;6.03;;;;;;;;;;5007981;28;20198;-70
2022/04/26 04:56:09;;;;;;;8.73;6.10;;;;;;;;;;5007414;28;20548;-71
2022/04/26 04:58:34;;;;;;;10.90;6.13;;;;;;;;;;5010319;28;20201;-70
2022/04/26 05:00:59;;;;;;;12.60;7.40;;;;;;;;;;5003399;28;20214;-71
2022/04/26 05:03:24;;;;;;;10.17;6.57;;;;;;;;;;5004844;28;20241;-71
2022/04/26 05:05:49;;;;;;;8.20;5.87;;;;;;;;;;5005563;28;20199;-71
2022/04/26 05:08:15;;;;;;;7.87;5.80;;;;;;;;;;5008710;28;20305;-70
2022/04/26 05:10:40;;;;;;;10.60;6.60;;;;;;;;;;5007635;28;20227;-71
2022/04/26 05:13:06;;;;;;;10.83;6.33;;;;;;;;;;5009734;28;20460;-71
2022/04/26 05:15:32;;;;;;;10.90;6.10;;;;;;;;;;5008938;28;20182;-71
2022/04/26 05:17:57;;;;;;;8.93;5.90;;;;;;;;;;5008060;28;20236;-71
2022/04/26 05:20:22;;;;;;;10.50;5.83;;;;;;;;;;5006534;28;20289;-70
2022/04/26 05:25:35;;;;;;;10.27;5.07;;;;;;;;;;5011397;28;20205;-69
2022/04/26 05:28:03;;;;;;;10.93;5.80;;;;;;;;;;5010042;28;20174;-71
2022/04/26 05:30:28;;;;;;;7.50;5.13;;;;;;;;;;5004595;28;20284;-71
2022/04/26 05:32:54;;;;;;;7.47;4.93;;;;;;;;;;5007926;28;20613;-71
2022/04/26 05:35:21;;;;;;;8.70;5.87;;;;;;;;;;5010039;28;20179;-71
2022/04/26 05:37:46;;;;;;;11.53;5.47;;;;;;;;;;5009137;28;20266;-70
2022/04/26 05:40:11;;;;;;;9.30;6.97;;;;;;;;;;5011932;28;20690;-70
2022/04/26 05:42:38;;;;;;;8.03;5.43;;;;;;;;;;5011376;28;20282;-71
2022/04/26 05:45:03;;;;;;;9.17;5.03;;;;;;;;;;5013628;28;20198;-68
2022/04/26 05:47:28;;;;;;;8.37;5.47;;;;;;;;;;5012184;28;20186;-70
2022/04/26 05:49:55;;;;;;;7.80;5.20;;;;;;;;;;5012407;28;20209;-72
2022/04/26 05:52:20;;;;;;;9.37;5.03;;;;;;;;;;5012000;28;20234;-70
2022/04/26 05:54:45;;;;;;;6.47;4.73;;;;;;;;;;5014592;28;20564;-68
2022/04/26 05:57:10;;;;;;;10.23;4.93;;;;;;;;;;5014372;28;20183;-71
2022/04/26 05:59:36;;;;;;;8.63;5.23;;;;;;;;;;5013703;28;20183;-71
2022/04/26 06:02:01;;;;;;;9.50;4.57;;;;;;;;;;5013964;28;20218;-70
2022/04/26 06:04:27;;;;;;;10.97;4.97;;;;;;;;;;5022494;28;20216;-69
2022/04/26 06:06:52;;;;;;;5.77;5.17;;;;;;;;;;5008691;28;20448;-70
2022/04/26 06:09:19;;;;;;;9.10;4.40;;;;;;;;;;5005397;28;20680;-70
2022/04/26 06:11:44;;;;;;;15.87;6.77;;;;;;;;;;5027037;28;20199;-69
2022/04/26 06:14:09;;;;;;;7.57;4.63;;;;;;;;;;5012765;28;20183;-69
2022/04/26 06:16:34;;;;;;;6.97;4.50;;;;;;;;;;5011184;28;20202;-71
2022/04/26 06:18:59;;;;;;;14.40;4.47;;;;;;;;;;5010169;28;20211;-70
2022/04/26 06:21:25;;;;;;;9.23;5.33;;;;;;;;;;4996858;28;20315;-70
2022/04/26 06:23:50;;;;;;;12.13;4.90;;;;;;;;;;5014498;28;20572;-71
2022/04/26 06:26:15;;;;;;;6.47;3.70;;;;;;;;;;5012243;28;20230;-71
2022/04/26 06:28:40;;;;;;;11.20;4.57;;;;;;;;;;5008095;28;20179;-71
2022/04/26 06:31:05;;;;;;;10.30;4.57;;;;;;;;;;5010306;28;20234;-70
2022/04/26 06:33:31;;;;;;;8.60;4.20;;;;;;;;;;5008143;28;20266;-68
2022/04/26 06:35:56;;;;;;;8.97;4.30;;;;;;;;;;5010540;28;20182;-71
2022/04/26 06:38:22;;;;;;;12.83;4.20;;;;;;;;;;5010700;28;20205;-71
2022/04/26 06:40:47;;;;;;;10.77;3.90;;;;;;;;;;5010881;28;20248;-71
2022/04/26 06:43:12;;;;;;;8.30;3.60;;;;;;;;;;5010772;28;20258;-70
2022/04/26 06:45:37;;;;;;;9.80;3.90;;;;;;;;;;5009711;28;20211;-71
2022/04/26 06:48:06;;;;;;;8.67;4.63;;;;;;;;;;5010542;28;20263;-69
2022/04/26 06:50:32;;;;;;;9.37;3.57;;;;;;;;;;5008726;28;20203;-71
2022/04/26 06:52:57;;;;;;;7.67;3.33;;;;;;;;;;5005219;28;20183;-69
2022/04/26 06:55:22;;;;;;;6.33;3.73;;;;;;;;;;5012015;28;20262;-70
2022/04/26 06:57:47;;;;;;;7.60;3.67;;;;;;;;;;5010598;28;20195;-70
2022/04/26 07:00:13;;;;;;;7.70;3.60;;;;;;;;;;5014733;28;20253;-71
2022/04/26 07:02:38;;;;;;;10.27;3.63;;;;;;;;;;5013862;28;20205;-71
2022/04/26 07:05:03;;;;;;;7.23;4.23;;;;;;;;;;5011435;28;20645;-71
2022/04/26 07:07:28;;;;;;;9.03;4.17;;;;;;;;;;5011591;28;20187;-71
2022/04/26 07:09:53;;;;;;;7.40;3.80;;;;;;;;;;5012685;28;20183;-71
2022/04/26 07:12:19;;;;;;;6.43;3.60;;;;;;;;;;5010764;28;20221;-69
2022/04/26 07:14:44;;;;;;;14.27;5.32;;;;;;;;;;5013231;28;20182;-71
2022/04/26 07:17:10;;;;;;;9.43;3.57;;;;;;;;;;5012019;28;20767;-71
2022/04/26 07:19:35;;;;;;;9.87;3.60;;;;;;;;;;5008642;28;20183;-71
2022/04/26 07:22:03;;;;;;;11.73;3.63;;;;;;;;;;5012807;28;20314;-72
2022/04/26 07:24:28;;;;;;;8.53;3.73;;;;;;;;;;5011581;28;20288;-71
2022/04/26 07:26:54;;;;;;;11.63;4.70;;;;;;;;;;5012767;28;20643;-71
2022/04/26 07:29:19;;;;;;;10.90;4.67;;;;;;;;;;5009792;28;20187;-69
2022/04/26 07:31:45;;;;;;;7.80;3.67;;;;;;;;;;5011935;28;20590;-71
2022/04/26 07:34:24;;;;;;;9.50;4.03;;;;;;;;;;5005388;28;20557;-71
2022/04/26 07:36:50;;;;;;;4.97;3.40;;;;;;;;;;5012872;28;20672;-72
2022/04/26 07:39:17;;;;;;;4.20;3.77;;;;;;;;;;5008907;28;20182;-70
2022/04/26 07:41:43;;;;;;;8.77;3.53;;;;;;;;;;5007711;28;20195;-70
2022/04/26 07:44:08;;;;;;;5.93;3.20;;;;;;;;;;5012333;28;20221;-71
2022/04/26 07:46:34;;;;;;;6.10;3.50;;;;;;;;;;5009970;28;20197;-71
2022/04/26 07:48:59;;;;;;;5.30;3.50;;;;;;;;;;5010180;28;20233;-72
2022/04/26 07:51:24;;;;;;;14.30;3.77;;;;;;;;;;5003568;28;20199;-71
2022/04/26 07:53:49;;;;;;;7.37;3.07;;;;;;;;;;5003359;28;20266;-70
2022/04/26 07:56:15;;;;;;;6.87;3.23;;;;;;;;;;5011568;28;20213;-69
2022/04/26 07:58:40;;;;;;;7.23;3.37;;;;;;;;;;5006785;28;20185;-70
2022/04/26 08:01:05;;;;;;;10.43;3.77;;;;;;;;;;5006671;28;20643;-71
2022/04/26 08:03:33;;;;;;;4.40;2.90;;;;;;;;;;5009569;28;20202;-71
2022/04/26 08:05:59;;;;;;;4.73;3.13;;;;;;;;;;5012649;28;20187;-71
2022/04/26 08:08:24;;;;;;;7.27;4.07;;;;;;;;;;4999654;28;20250;-69
2022/04/26 08:10:49;;;;;;;7.90;3.57;;;;;;;;;;5006717;28;20199;-71
2022/04/26 08:13:14;;;;;;;5.13;3.87;;;;;;;;;;5009494;28;20248;-70
2022/04/26 08:15:40;;;;;;;8.60;3.63;;;;;;;;;;5009248;28;20192;-70
2022/04/26 08:18:05;;;;;;;10.90;3.50;;;;;;;;;;5008562;28;20592;-70
2022/04/26 08:20:31;;;;;;;6.30;3.63;;;;;;;;;;5007922;28;20774;-69
2022/04/26 08:22:56;;;;;;;6.20;3.40;;;;;;;;;;5006875;28;20195;-71
2022/04/26 08:28:05;;;;;;;5.83;3.43;;;;;;;;;;5008041;28;20178;-71
2022/04/26 08:30:30;;;;;;;6.80;3.17;;;;;;;;;;5005210;28;20198;-69
2022/04/26 08:32:55;;;;;;;4.47;2.87;;;;;;;;;;5010139;28;20625;-69
2022/04/26 08:35:22;;;;;;;4.80;2.73;;;;;;;;;;5008504;28;20629;-70
2022/04/26 08:37:47;;;;;;;8.97;3.30;;;;;;;;;;5009408;28;20665;-70
2022/04/26 08:40:12;;;;;;;3.40;2.90;;;;;;;;;;5008238;28;20270;-71
2022/04/26 08:42:39;;;;;;;5.67;3.20;;;;;;;;;;5010485;28;20217;-70
2022/04/26 08:45:06;;;;;;;5.13;2.53;;;;;;;;;;5012130;28;20698;-70
2022/04/26 08:52:59;;;;;;;5.53;2.60;;;;;;;;;;5009546;28;20274;-70
2022/04/26 08:55:24;;;;;;;4.32;2.35;;;;;;;;;;5009893;28;20642;-70
2022/04/26 08:57:50;;;;;;;5.50;2.90;;;;;;;;;;5002020;28;20278;-71
2022/04/26 09:00:16;;;;;;;5.13;2.90;;;;;;;;;;5007712;28;20309;-69
2022/04/26 09:02:41;;;;;;;3.53;2.60;;;;;;;;;;5011081;28;20193;-71
2022/04/26 09:05:10;;;;;;;4.93;2.90;;;;;;;;;;5010221;28;20207;-71
2022/04/26 09:07:39;;;;;;;6.45;2.67;;;;;;;;;;5007860;28;20628;-71
2022/04/26 09:10:08;;;;;;;5.68;2.70;;;;;;;;;;5012574;28;20179;-71
2022/04/26 09:12:52;;;;;;;5.65;2.72;;;;;;;;;;5009237;28;20178;-69
2022/04/26 09:15:17;;;;;;;4.22;2.88;;;;;;;;;;5010608;28;20189;-70
2022/04/26 09:17:42;;;;;;;5.00;2.75;;;;;;;;;;5008057;28;20182;-70
2022/04/26 09:20:09;;;;;;;2.87;2.20;;;;;;;;;;5003472;28;20281;-72
2022/04/26 09:22:34;;;;;;;5.78;2.72;;;;;;;;;;5010101;28;20471;-71
2022/04/26 09:25:04;;;;;;;4.60;3.10;;;;;;;;;;5005989;28;20238;-71
2022/04/26 09:27:29;;;;;;;3.58;2.65;;;;;;;;;;5009960;28;20183;-69
2022/04/26 09:29:55;;;;;;;5.18;2.67;;;;;;;;;;5010190;28;20179;-70
2022/04/26 09:32:20;;;;;;;4.82;3.10;;;;;;;;;;5011190;28;20171;-72
2022/04/26 09:34:46;;;;;;;4.10;2.80;;;;;;;;;;5010321;28;20191;-69
2022/04/26 09:37:12;;;;;;;6.88;2.70;;;;;;;;;;5007977;28;20211;-69
2022/04/26 09:39:39;;;;;;;3.50;2.13;;;;;;;;;;5009775;28;20585;-70
2022/04/26 09:42:05;;;;;;;6.07;3.15;;;;;;;;;;5005917;28;20687;-69
2022/04/26 09:44:34;;;;;;;5.90;2.95;;;;;;;;;;5011934;28;20225;-69
2022/04/26 09:46:59;;;;;;;4.43;2.47;;;;;;;;;;5006431;28;20179;-70
2022/04/26 09:49:25;;;;;;;3.90;2.58;;;;;;;;;;5007818;28;20254;-70
2022/04/26 09:51:59;;;;;;;4.05;2.60;;;;;;;;;;5009585;28;20198;-69
2022/04/26 09:54:25;;;;;;;6.28;3.13;;;;;;;;;;5008282;28;20178;-72
2022/04/26 09:56:51;;;;;;;5.05;2.63;;;;;;;;;;5009601;28;20175;-70
2022/04/26 09:59:20;;;;;;;3.05;2.50;;;;;;;;;;5010469;28;20583;-69
2022/04/26 10:01:47;;;;;;;5.82;2.58;;;;;;;;;;5004792;28;20318;-69
2022/04/26 10:04:20;;;;;;;6.50;2.55;;;;;;;;;;5010826;28;20236;-70
2022/04/26 10:06:46;;;;;;;4.72;2.45;;;;;;;;;;5002618;28;20175;-70
2022/04/26 10:09:13;;;;;;;4.05;2.78;;;;;;;;;;5008428;28;20182;-70
2022/04/26 10:11:38;;;;;;;3.45;2.38;;;;;;;;;;5006811;28;20222;-70
2022/04/26 10:14:05;;;;;;;6.67;3.83;;;;;;;;;;5009078;28;20650;-70
2022/04/26 10:16:30;;;;;;;4.53;2.50;;;;;;;;;;5008468;28;20445;-70
2022/04/26 10:19:02;;;;;;;4.72;2.83;;;;;;;;;;5008510;28;20175;-70
2022/04/26 10:21:27;;;;;;;4.00;2.50;;;;;;;;;;5009989;28;20498;-70
2022/04/26 10:23:56;;;;;;;5.97;2.72;;;;;;;;;;5006868;28;20237;-70
2022/04/26 10:28:49;;;;;;;4.50;2.70;;;;;;;;;;5013999;28;20175;-70
2022/04/26 10:31:15;;;;;;;4.65;2.03;;;;;;;;;;5009379;28;20620;-70
2022/04/26 10:33:41;;;;;;;6.70;2.58;;;;;;;;;;5009912;28;20194;-69
2022/04/26 10:36:24;;;;;;;3.92;2.20;;;;;;;;;;5011523;28;20294;-69
2022/04/26 10:39:05;;;;;;;3.53;2.10;;;;;;;;;;5011488;28;20183;-70
2022/04/26 10:41:37;;;;;;;5.13;2.90;;;;;;;;;;5012406;28;20265;-69
2022/04/26 10:44:22;;;;;;;3.13;2.20;;;;;;;;;;5007945;28;20617;-71
2022/04/26 10:46:57;;;;;;;2.60;2.03;;;;;;;;;;5009061;28;20179;-69
2022/04/26 10:49:23;;;;;;;3.85;2.72;;;;;;;;;;5012130;28;20166;-68
2022/04/26 10:51:51;;;;;;;3.97;2.92;;;;;;;;;;5009892;28;21877;-69
2022/04/26 10:54:36;;;;;;;5.28;2.75;;;;;;;;;;5009048;28;20321;-69
2022/04/26 10:57:02;;;;;;;6.53;2.65;;;;;;;;;;5010678;28;20274;-70
2022/04/26 10:59:27;;;;;;;2.85;2.22;;;;;;;;;;5010337;28;20317;-70
2022/04/26 11:01:52;;;;;;;3.15;2.42;;;;;;;;;;5010618;28;20213;-69
2022/04/26 11:04:18;;;;;;;5.03;2.13;;;;;;;;;;5012356;28;20179;-69
2022/04/26 11:06:43;;;;;;;5.35;2.53;;;;;;;;;;5012190;28;20185;-69
2022/04/26 11:09:10;;;;;;;3.47;2.35;;;;;;;;;;5016002;28;20178;-70
2022/04/26 11:11:54;;;;;;;5.10;2.72;;;;;;;;;;5013364;28;20229;-69
2022/04/26 11:14:22;;;;;;;3.58;2.17;;;;;;;;;;5011581;28;20194;-69
2022/04/26 11:16:54;;;;;;;2.28;1.80;;;;;;;;;;5009803;28;20652;-69
2022/04/26 11:19:30;;;;;;;4.35;1.80;;;;;;;;;;5007261;28;20464;-69
2022/04/26 11:21:55;;;;;;;2.65;2.15;;;;;;;;;;5008804;28;20190;-69
2022/04/26 11:29:52;;;;;;;5.80;2.50;;;;;;;;;;5016360;28;20250;-70
2022/04/26 11:32:27;;;;;;;2.90;1.85;;;;;;;;;;5012903;28;20167;-70
2022/04/26 11:34:52;;;;;;;2.25;2.05;;;;;;;;;;5011821;28;20170;-70
2022/04/26 11:37:17;;;;;;;2.45;1.90;;;;;;;;;;5012594;28;20645;-70
2022/04/26 11:39:43;;;;;;;2.92;1.77;;;;;;;;;;5013800;28;20202;-70
2022/04/26 11:42:08;;;;;;;1.45;1.35;;;;;;;;;;5018286;28;20203;-70
2022/04/26 11:44:35;;;;;;;3.25;1.80;;;;;;;;;;5017246;28;20684;-70
2022/04/26 11:47:00;;;;;;;4.13;1.70;;;;;;;;;;5008073;28;20613;-70
2022/04/26 11:49:38;;;;;;;2.60;1.75;;;;;;;;;;5002696;28;20309;-69
2022/04/26 11:52:03;;;;;;;1.88;1.38;;;;;;;;;;5009586;28;20218;-70
2022/04/26 11:54:38;;;;;;;1.65;1.50;;;;;;;;;;5014171;28;20711;-70
2022/04/26 11:57:04;;;;;;;1.60;1.20;;;;;;;;;;5011737;28;20186;-70
2022/04/26 11:59:31;;;;;;;1.52;1.30;;;;;;;;;;5012466;28;20179;-70
2022/04/26 12:01:56;;;;;;;3.03;1.30;;;;;;;;;;5011265;28;20210;-70
2022/04/26 12:04:21;;;;;;;2.33;1.40;;;;;;;;;;5010743;28;20294;-69
2022/04/26 12:06:47;;;;;;;1.60;1.40;;;;;;;;;;5010273;28;20512;-70
2022/04/26 12:09:14;;;;;;;1.60;1.38;;;;;;;;;;5011449;28;20213;-70
2022/04/26 12:11:41;;;;;;;4.53;1.50;;;;;;;;;;5005815;28;20214;-70
2022/04/26 12:14:08;;;;;;;1.85;1.38;;;;;;;;;;5008726;28;20191;-70
2022/04/26 12:16:37;;;;;;;1.95;1.80;;;;;;;;;;5009509;28;20683;-70
2022/04/26 12:19:05;;;;;;;2.53;1.67;;;;;;;;;;5007019;28;20186;-70
2022/04/26 12:21:43;;;;;;;6.13;1.73;;;;;;;;;;5011040;28;20203;-70
2022/04/26 12:24:15;;;;;;;3.15;1.70;;;;;;;;;;5010620;28;20186;-70
2022/04/26 12:26:57;;;;;;;1.25;1.08;;;;;;;;;;5006864;28;20191;-70
2022/04/26 12:29:22;;;;;;;3.05;1.30;;;;;;;;;;5006664;28;20213;-70
2022/04/26 12:31:48;;;;;;;3.50;1.40;;;;;;;;;;5010522;28;20226;-69
2022/04/26 12:34:17;;;;;;;3.65;1.83;;;;;;;;;;5007204;28;20187;-69
2022/04/26 12:36:48;;;;;;;1.88;1.35;;;;;;;;;;5009574;28;20190;-70
2022/04/26 12:39:13;;;;;;;2.67;1.42;;;;;;;;;;5008848;28;20619;-69
2022/04/26 12:41:46;;;;;;;5.17;2.23;;;;;;;;;;5010526;28;20289;-69
2022/04/26 12:44:11;;;;;;;1.85;1.75;;;;;;;;;;5011021;28;20433;-69
2022/04/26 12:50:28;;;;;;;2.47;1.63;;;;;;;;;;5010793;28;20254;-69
2022/04/26 12:52:38;;;;;;;2.30;1.45;;;;;;;;;;5007980;28;20232;-69
2022/04/26 12:55:04;;;;;;;1.50;1.40;;;;;;;;;;5008309;28;20179;-69
2022/04/26 12:57:29;;;;;;;2.25;1.80;;;;;;;;;;5006542;28;20281;-69
2022/04/26 12:59:54;;;;;;;1.85;1.60;;;;;;;;;;5013985;28;20671;-70
2022/04/26 13:02:19;;;;;;;1.77;1.42;;;;;;;;;;5008066;28;20680;-69
2022/04/26 13:04:44;;;;;;;1.85;1.70;;;;;;;;;;5010291;28;20592;-69
2022/04/26 13:07:10;;;;;;;1.90;1.67;;;;;;;;;;5008311;28;20178;-69
2022/04/26 13:09:35;;;;;;;3.00;1.70;;;;;;;;;;5004308;28;20452;-69
2022/04/26 13:12:00;;;;;;;2.50;1.60;;;;;;;;;;5006952;28;20194;-69
2022/04/26 13:14:27;;;;;;;2.47;1.60;;;;;;;;;;5007173;28;20906;-69
2022/04/26 13:16:52;;;;;;;2.90;1.48;;;;;;;;;;5010862;28;20424;-69
2022/04/26 13:19:17;;;;;;;3.67;1.50;;;;;;;;;;5010925;28;20171;-69
2022/04/26 13:21:43;;;;;;;2.35;1.77;;;;;;;;;;5004587;28;20654;-69
2022/04/26 13:24:08;;;;;;;2.97;1.83;;;;;;;;;;5002738;28;20637;-69
2022/04/26 13:26:35;;;;;;;2.38;1.45;;;;;;;;;;5009457;28;20214;-69
2022/04/26 13:29:00;;;;;;;3.45;1.58;;;;;;;;;;5007776;28;20263;-69
2022/04/26 13:31:25;;;;;;;3.03;1.63;;;;;;;;;;5007531;28;20735;-69
2022/04/26 13:33:51;;;;;;;4.37;1.70;;;;;;;;;;5007604;28;20468;-69
2022/04/26 13:36:17;;;;;;;4.13;2.13;;;;;;;;;;5009464;28;20954;-69
2022/04/26 13:38:42;;;;;;;2.85;1.63;;;;;;;;;;5007377;28;20253;-69
2022/04/26 13:41:07;;;;;;;2.00;1.67;;;;;;;;;;4998199;28;20202;-69
2022/04/26 13:43:33;;;;;;;2.47;1.80;;;;;;;;;;4984931;28;20595;-68
2022/04/26 13:45:58;;;;;;;3.45;1.70;;;;;;;;;;4997115;28;20245;-69
2022/04/26 13:48:23;;;;;;;3.03;1.80;;;;;;;;;;5013980;28;20177;-69
2022/04/26 13:50:48;;;;;;;4.18;1.90;;;;;;;;;;5008299;28;20460;-69
2022/04/26 13:53:13;;;;;;;2.42;2.08;;;;;;;;;;4996291;28;20180;-69
2022/04/26 13:55:39;;;;;;;3.67;1.92;;;;;;;;;;5006028;28;20183;-69
2022/04/26 13:58:08;;;;;;;5.97;1.70;;;;;;;;;;5009100;28;20179;-69
2022/04/26 14:00:35;;;;;;;5.03;2.50;;;;;;;;;;5010295;28;20840;-69
2022/04/26 14:03:00;;;;;;;4.63;1.80;;;;;;;;;;5013775;28;20179;-70
2022/04/26 14:05:27;;;;;;;4.37;2.33;;;;;;;;;;5013951;28;20213;-69
2022/04/26 14:07:52;;;;;;;6.03;2.22;;;;;;;;;;5012062;28;20427;-69
2022/04/26 14:10:17;;;;;;;3.28;2.58;;;;;;;;;;5015045;28;20198;-69
2022/04/26 14:12:43;;;;;;;2.88;2.33;;;;;;;;;;5010615;28;20657;-69
2022/04/26 14:23:20;;;;;;;3.30;2.22;;;;;;;;;;5012178;28;20691;-69
2022/04/26 14:25:45;;;;;;;8.50;2.58;;;;;;;;;;5012822;28;20203;-70
2022/04/26 14:28:11;;;;;;;2.92;2.38;;;;;;;;;;5011129;28;20183;-70
2022/04/26 14:30:36;;;;;;;4.93;2.53;;;;;;;;;;5013331;28;20248;-69
2022/04/26 14:33:01;;;;;;;3.08;2.65;;;;;;;;;;5010477;28;20186;-69
2022/04/26 14:35:29;;;;;;;4.57;2.22;;;;;;;;;;5008709;28;20653;-69
2022/04/26 14:37:54;;;;;;;5.97;2.90;;;;;;;;;;5011976;28;20205;-69
2022/04/26 14:40:19;;;;;;;4.00;2.55;;;;;;;;;;5014165;28;20245;-69
2022/04/26 14:42:46;;;;;;;5.13;2.50;;;;;;;;;;5012456;28;20190;-70
2022/04/26 14:45:12;;;;;;;2.50;2.25;;;;;;;;;;5012999;28;20578;-69
2022/04/26 14:47:37;;;;;;;4.15;2.30;;;;;;;;;;5003758;28;20187;-69
2022/04/26 14:50:04;;;;;;;3.80;2.63;;;;;;;;;;5011944;28;20187;-69
2022/04/26 14:52:30;;;;;;;2.78;2.35;;;;;;;;;;5011347;28;20434;-69
2022/04/26 14:54:57;;;;;;;4.05;2.70;;;;;;;;;;5006757;28;20262;-69
2022/04/26 14:57:22;;;;;;;4.45;2.70;;;;;;;;;;5012837;28;20537;-69
2022/04/26 14:59:48;;;;;;;5.32;2.78;;;;;;;;;;5016120;28;20178;-69
2022/04/26 15:02:14;;;;;;;3.80;3.17;;;;;;;;;;5011390;28;20218;-69
2022/04/26 15:04:40;;;;;;;3.63;2.92;;;;;;;;;;5012021;28;20225;-69
2022/04/26 15:07:05;;;;;;;4.50;2.83;;;;;;;;;;5011959;28;20210;-70
2022/04/26 15:09:52;;;;;;;6.38;2.83;;;;;;;;;;5012943;28;20178;-69
2022/04/26 15:17:48;;;;;;;4.45;2.83;;;;;;;;;;5010727;28;20628;-69
2022/04/26 15:20:14;;;;;;;4.53;2.90;;;;;;;;;;5010549;28;20229;-69
2022/04/26 15:22:39;;;;;;;4.78;2.80;;;;;;;;;;5009740;28;20657;-70
2022/04/26 15:25:06;;;;;;;3.30;2.47;;;;;;;;;;5008619;28;20202;-69
2022/04/26 15:27:31;;;;;;;6.22;3.08;;;;;;;;;;5005315;28;20179;-68
2022/04/26 15:29:57;;;;;;;4.65;3.00;;;;;;;;;;5012037;28;20237;-69
2022/04/26 15:32:23;;;;;;;4.93;2.90;;;;;;;;;;5007862;28;20178;-69
2022/04/26 15:34:48;;;;;;;5.85;3.20;;;;;;;;;;5008164;28;20428;-70
2022/04/26 15:37:14;;;;;;;4.00;2.90;;;;;;;;;;5011941;28;20187;-69
2022/04/26 15:39:40;;;;;;;4.37;2.83;;;;;;;;;;5011325;28;20191;-69
2022/04/26 15:42:06;;;;;;;4.30;2.80;;;;;;;;;;5010480;28;20448;-69
2022/04/26 15:44:31;;;;;;;4.57;2.78;;;;;;;;;;5012768;28;20440;-69
2022/04/26 15:46:56;;;;;;;6.43;2.90;;;;;;;;;;5010164;28;20182;-69
2022/04/26 15:49:22;;;;;;;4.35;2.90;;;;;;;;;;5000214;28;20424;-67
2022/04/26 15:51:47;;;;;;;4.13;2.85;;;;;;;;;;5010034;28;20637;-70
2022/04/26 15:54:14;;;;;;;4.33;3.20;;;;;;;;;;5013036;28;20175;-70
2022/04/26 15:56:41;;;;;;;3.50;2.70;;;;;;;;;;5004774;28;21315;-68
2022/04/26 15:59:06;;;;;;;4.57;3.03;;;;;;;;;;5008844;28;20187;-68
2022/04/26 16:01:32;;;;;;;5.20;2.73;;;;;;;;;;5010514;28;20215;-68
2022/04/26 16:03:57;;;;;;;5.10;3.07;;;;;;;;;;5011494;28;20909;-69
2022/04/26 16:06:22;;;;;;;4.27;2.37;;;;;;;;;;5009947;28;20452;-68
2022/04/26 16:08:47;;;;;;;2.60;2.30;;;;;;;;;;5008634;28;20945;-69
2022/04/26 16:22:08;;;;;;;4.65;2.40;;;;;;;;;;5008726;28;20269;-67
2022/04/26 16:24:38;;;;;;;3.40;2.10;;;;;;;;;;5008080;28;20183;-68
2022/04/26 16:27:04;;;;;;;4.03;2.15;;;;;;;;;;5002271;28;20175;-68
2022/04/26 16:29:29;;;;;;;3.83;2.88;;;;;;;;;;5011195;28;20247;-68
2022/04/26 16:31:54;;;;;;;4.57;2.75;;;;;;;;;;5010718;28;20194;-68
2022/04/26 16:34:20;;;;;;;5.50;2.60;;;;;;;;;;5011456;28;20198;-68
2022/04/26 16:36:46;;;;;;;5.22;2.55;;;;;;;;;;5008345;28;20440;-69
2022/04/26 16:39:11;;;;;;;4.40;2.38;;;;;;;;;;5012286;28;20182;-69
2022/04/26 16:41:36;;;;;;;5.85;2.28;;;;;;;;;;5010086;28;20207;-68
2022/04/26 16:44:01;;;;;;;2.57;1.80;;;;;;;;;;5008781;28;20562;-69
2022/04/26 16:46:30;;;;;;;4.78;3.08;;;;;;;;;;5010996;28;20468;-69
2022/04/26 16:48:55;;;;;;;2.75;2.17;;;;;;;;;;5004997;28;20183;-69
2022/04/26 16:51:22;;;;;;;2.58;2.38;;;;;;;;;;5000993;28;20270;-69
2022/04/26 16:53:48;;;;;;;2.92;2.55;;;;;;;;;;5008457;28;20184;-69
2022/04/26 16:56:13;;;;;;;3.47;2.55;;;;;;;;;;5010359;28;20179;-69
2022/04/26 16:58:38;;;;;;;4.17;2.47;;;;;;;;;;5009966;28;20183;-69
2022/04/26 17:01:03;;;;;;;2.58;2.38;;;;;;;;;;5008959;28;20487;-68
2022/04/26 17:03:29;;;;;;;3.72;2.58;;;;;;;;;;5010235;28;20179;-69
2022/04/26 17:05:54;;;;;;;4.00;2.55;;;;;;;;;;5010090;28;20688;-69
2022/04/26 17:08:19;;;;;;;3.40;2.92;;;;;;;;;;5010098;28;20183;-69
2022/04/26 17:10:45;;;;;;;3.40;2.85;;;;;;;;;;5012422;28;20586;-69
2022/04/26 17:13:11;;;;;;;4.35;3.13;;;;;;;;;;5011068;28;20487;-69
2022/04/26 17:15:36;;;;;;;4.38;2.70;;;;;;;;;;5010382;28;20274;-69
2022/04/26 17:18:02;;;;;;;5.35;2.85;;;;;;;;;;5008315;28;20412;-69
2022/04/26 17:20:32;;;;;;;4.72;3.03;;;;;;;;;;5007865;28;20203;-68
2022/04/26 17:22:58;;;;;;;3.65;2.35;;;;;;;;;;5008989;28;20191;-69
2022/04/26 17:25:23;;;;;;;3.97;2.63;;;;;;;;;;5004934;28;20290;-69
2022/04/26 17:27:49;;;;;;;4.23;2.60;;;;;;;;;;5009900;28;20224;-69
2022/04/26 17:30:14;;;;;;;4.47;2.00;;;;;;;;;;5009873;28;20441;-69
2022/04/26 17:32:40;;;;;;;3.60;2.30;;;;;;;;;;5010184;28;20470;-69
2022/04/26 17:35:05;;;;;;;3.53;2.20;;;;;;;;;;5010666;28;20424;-69
2022/04/26 17:37:31;;;;;;;2.78;2.25;;;;;;;;;;5014509;28;20190;-68
2022/04/26 17:39:56;;;;;;;4.60;2.33;;;;;;;;;;5008687;28;20183;-69
2022/04/26 17:42:24;;;;;;;2.57;2.07;;;;;;;;;;5010500;28;20652;-69
2022/04/26 17:44:50;;;;;;;4.10;2.30;;;;;;;;;;5013012;28;20993;-69
2022/04/26 17:47:15;;;;;;;4.18;2.33;;;;;;;;;;5014112;28;20171;-69
2022/04/26 17:49:40;;;;;;;6.73;3.20;;;;;;;;;;5011271;28;20183;-69
2022/04/26 17:52:05;;;;;;;3.65;2.58;;;;;;;;;;5011742;28;20958;-68
2022/04/26 17:57:14;;;;;;;5.05;2.80;;;;;;;;;;5013406;28;20716;-69
2022/04/26 17:59:40;;;;;;;3.27;2.40;;;;;;;;;;5011222;28;20289;-69
2022/04/26 18:02:05;;;;;;;5.07;2.63;;;;;;;;;;5013179;28;20460;-70
2022/04/26 18:04:30;;;;;;;3.17;2.47;;;;;;;;;;5011630;28;20557;-71
2022/04/26 18:06:56;;;;;;;5.88;2.65;;;;;;;;;;5009440;28;20600;-68
2022/04/26 18:09:22;;;;;;;4.38;3.08;;;;;;;;;;5010812;28;20179;-70
2022/04/26 18:11:47;;;;;;;6.53;3.40;;;;;;;;;;5008927;28;20191;-68
2022/04/26 18:14:13;;;;;;;3.75;3.10;;;;;;;;;;5013542;28;20214;-70
2022/04/26 18:16:38;;;;;;;5.22;2.78;;;;;;;;;;5013160;28;20195;-70
2022/04/26 18:19:04;;;;;;;6.13;3.25;;;;;;;;;;5011700;28;20237;-69
2022/04/26 18:21:32;;;;;;;4.70;3.08;;;;;;;;;;5011423;28;20586;-68
2022/04/26 18:23:58;;;;;;;6.55;3.03;;;;;;;;;;5010154;28;20596;-70
2022/04/26 18:26:23;;;;;;;5.97;3.28;;;;;;;;;;5012678;28;20293;-68
2022/04/26 18:28:49;;;;;;;7.90;3.33;;;;;;;;;;5012189;28;20221;-68
2022/04/26 18:31:15;;;;;;;3.83;2.90;;;;;;;;;;5013742;28;20186;-68
2022/04/26 18:33:41;;;;;;;5.77;3.53;;;;;;;;;;5010875;28;20608;-71
2022/04/26 18:36:08;;;;;;;6.10;3.67;;;;;;;;;;5013164;28;20183;-71
2022/04/26 18:38:33;;;;;;;4.00;3.60;;;;;;;;;;5011720;28;20258;-70
2022/04/26 18:40:59;;;;;;;8.80;3.63;;;;;;;;;;5013690;28;20289;-68
2022/04/26 18:43:25;;;;;;;4.47;3.40;;;;;;;;;;5011213;28;20599;-71
2022/04/26 18:45:50;;;;;;;8.87;3.17;;;;;;;;;;5013009;28;20282;-68
2022/04/26 18:48:15;;;;;;;4.90;3.57;;;;;;;;;;5010886;28;20171;-69
2022/04/26 18:50:40;;;;;;;11.97;10.60;;;;;;;;;;5010110;28;20233;-68
2022/04/26 18:53:07;;;;;;;6.53;5.87;;;;;;;;;;4992711;28;20256;-68
2022/04/26 18:55:32;;;;;;;7.70;5.80;;;;;;;;;;5007491;28;20187;-69
2022/04/26 18:57:57;;;;;;;12.17;9.47;;;;;;;;;;5016382;28;20186;-68
2022/04/26 19:00:23;;;;;;;14.60;12.50;;;;;;;;;;5010073;28;20214;-68